Route Details

Aircraft Information
Group: North America Fleet
Types: B738, B752, B762, B763
Route Data
Distance: 788nm
Duration: 2h 20m
Origin METAR: KMSP 152353Z 17007KT 10SM SCT035 SCT045 BKN250 24/16 A3009 RMK AO2 SLP187 T02390161 10244 20222 58007
Dest. METAR: KIAD 152252Z 29006KT 10SM FEW020 BKN080 BKN120 BKN160 20/16 A2997 RMK AO2 SLP147 T02000156
Freight Data
(for Aug 16, 2022)
Load Factor:
69%
Manifested Cargo: 54,793lbs
Financial History
Total Freight: 107,686lbs
Average Load: 0lbs/flt
Fuel Used: 53,414lbs
Avg. Fuel Used: 0lbs/flt
Fuel Expense: $27,775
Avg. Fuel Expense: $0
Avg. Fuel Cost: $0/lbs
Total Gross Income: $282,137
Pilot Pay: $198
Total Expenses: $60,509
Total Revenue: $192,719
Average Revenue: $0

Capitol Logistics 319




KMSP
Minneapolis-St Paul International Airport
Minneapolis, Minnesota
KIAD
Washington Dulles International Airport
Dulles, Virginia

Activity Log

Date Flight Route Aircraft Duration
07/20/2022 CPX319 COULT7 DLL J34 DJB DCT MGW GIBBZ4 B752 2h 04m
07/17/2022 CPX319 COULT7 DLL J34 DJB DCT MGW GIBBZ4 B763 2h 18m